Time;durP1;ratioP1;P1;durP2;ratioP2;P2;SDS_P1;SDS_P2;PMS_P1;PMS_P2;Temp;Humidity;BMP_temperature;BMP_pressure;BME280_temperature;BME280_humidity;BME280_pressure;Samples;Min_cycle;Max_cycle;Signal;HPM_P1;HPM_P2
2021/10/22 00:02:00;;;;;;;7.03;2.15;;;9.10;99.90;;;;;;4151583;28;20044;-69
2021/10/22 00:04:00;;;;;;;16.25;2.55;;;9.20;99.90;;;;;;4154148;28;20357;-70
2021/10/22 00:06:01;;;;;;;6.78;1.88;;;9.20;99.90;;;;;;4153789;28;20549;-69
2021/10/22 00:08:02;;;;;;;6.75;2.03;;;9.20;99.90;;;;;;4153873;28;20029;-69
2021/10/22 00:10:04;;;;;;;6.60;2.10;;;9.20;99.90;;;;;;4153518;28;20402;-69
2021/10/22 00:12:05;;;;;;;9.38;2.28;;;9.20;99.90;;;;;;4154690;28;20061;-70
2021/10/22 00:14:06;;;;;;;10.43;2.20;;;9.20;99.90;;;;;;4151993;28;20054;-69
2021/10/22 00:16:06;;;;;;;9.57;2.35;;;9.20;99.90;;;;;;4150047;28;20389;-69
2021/10/22 00:18:07;;;;;;;7.40;2.30;;;9.20;99.90;;;;;;4153532;28;20029;-70
2021/10/22 00:20:09;;;;;;;10.00;2.25;;;9.20;99.90;;;;;;4155062;28;20247;-69
2021/10/22 00:22:09;;;;;;;9.02;2.20;;;9.20;99.90;;;;;;4155941;28;20041;-69
2021/10/22 00:24:10;;;;;;;9.02;2.00;;;9.20;99.90;;;;;;4156158;28;20433;-69
2021/10/22 00:26:11;;;;;;;7.50;1.88;;;9.20;99.90;;;;;;4151766;28;20026;-69
2021/10/22 00:28:11;;;;;;;7.13;1.90;;;9.20;99.90;;;;;;4155092;28;20121;-69
2021/10/22 00:30:12;;;;;;;11.25;2.22;;;9.10;99.90;;;;;;4152401;28;20424;-69
2021/10/22 00:32:13;;;;;;;6.47;1.88;;;9.10;99.90;;;;;;4153327;28;20056;-69
2021/10/22 00:34:14;;;;;;;7.05;2.00;;;9.10;99.90;;;;;;4148279;28;20032;-69
2021/10/22 00:36:14;;;;;;;7.63;2.08;;;9.10;99.90;;;;;;4155478;28;20041;-69
2021/10/22 00:38:15;;;;;;;8.30;1.67;;;9.10;99.90;;;;;;4156675;28;20120;-69
2021/10/22 00:40:16;;;;;;;9.25;2.40;;;9.10;99.90;;;;;;4153511;28;20515;-69
2021/10/22 00:42:18;;;;;;;7.30;1.88;;;9.00;99.90;;;;;;4152959;28;20254;-70
2021/10/22 00:44:18;;;;;;;7.30;2.17;;;9.00;99.90;;;;;;4152008;28;20306;-69
2021/10/22 00:46:19;;;;;;;10.65;2.30;;;9.00;99.90;;;;;;4154119;28;20081;-69
2021/10/22 00:48:19;;;;;;;7.50;2.17;;;9.00;99.90;;;;;;4154725;28;20116;-69
2021/10/22 00:50:20;;;;;;;6.85;1.83;;;9.00;99.90;;;;;;4155716;28;20105;-69
2021/10/22 00:52:27;;;;;;;8.15;2.47;;;9.00;99.90;;;;;;4154415;28;20040;-69
2021/10/22 00:54:27;;;;;;;8.60;2.25;;;9.00;99.90;;;;;;4155147;28;20067;-69
2021/10/22 00:56:28;;;;;;;12.38;2.30;;;8.90;99.90;;;;;;4152873;28;20771;-69
2021/10/22 00:58:28;;;;;;;9.70;2.75;;;8.90;99.90;;;;;;4152001;28;20033;-69
2021/10/22 01:00:29;;;;;;;11.43;2.17;;;8.90;99.90;;;;;;4155763;28;20567;-69
2021/10/22 01:02:30;;;;;;;7.85;2.38;;;8.90;99.90;;;;;;4156375;28;20377;-69
2021/10/22 01:04:31;;;;;;;7.22;1.75;;;8.80;99.90;;;;;;4153787;28;20393;-69
2021/10/22 01:06:31;;;;;;;8.02;2.33;;;8.80;99.90;;;;;;4152136;28;20041;-69
2021/10/22 01:08:34;;;;;;;6.50;2.20;;;8.80;99.90;;;;;;4154458;28;20045;-69
2021/10/22 01:10:38;;;;;;;9.70;2.22;;;8.70;99.90;;;;;;4152987;28;20511;-69
2021/10/22 01:12:41;;;;;;;8.10;2.10;;;8.70;99.90;;;;;;4154391;28;20520;-70
2021/10/22 01:14:42;;;;;;;8.07;2.25;;;8.70;99.90;;;;;;4152111;28;20121;-69
2021/10/22 01:16:42;;;;;;;15.02;2.83;;;8.60;99.90;;;;;;4156027;28;20532;-70
2021/10/22 01:18:46;;;;;;;10.27;2.30;;;8.60;99.90;;;;;;4152467;28;20113;-69
2021/10/22 01:20:47;;;;;;;10.30;2.40;;;8.60;99.90;;;;;;4153267;28;20120;-69
2021/10/22 01:22:50;;;;;;;8.52;2.97;;;8.60;99.90;;;;;;4154064;28;20511;-69
2021/10/22 01:24:52;;;;;;;9.18;2.60;;;8.60;99.90;;;;;;4148578;28;20021;-69
2021/10/22 01:26:52;;;;;;;8.33;2.07;;;8.60;99.90;;;;;;4157718;28;20079;-70
2021/10/22 01:28:53;;;;;;;10.30;2.30;;;8.60;99.90;;;;;;4150193;28;20041;-69
2021/10/22 01:30:54;;;;;;;10.55;3.08;;;8.60;99.90;;;;;;4151824;28;20100;-69
2021/10/22 01:33:06;;;;;;;11.07;2.42;;;8.60;99.90;;;;;;4147807;28;20060;-69
2021/10/22 01:35:08;;;;;;;8.55;2.30;;;8.60;99.90;;;;;;4153570;28;20041;-69
2021/10/22 01:37:09;;;;;;;10.05;2.35;;;8.60;99.90;;;;;;4153490;28;20056;-70
2021/10/22 01:39:10;;;;;;;8.90;2.53;;;8.50;99.90;;;;;;4150731;28;20030;-69
2021/10/22 01:41:10;;;;;;;11.18;2.95;;;8.40;99.90;;;;;;4149675;28;20356;-69
2021/10/22 01:43:11;;;;;;;10.20;2.72;;;8.50;99.90;;;;;;4154233;28;20571;-69
2021/10/22 01:45:13;;;;;;;8.23;2.50;;;8.50;99.90;;;;;;4154838;28;20646;-69
2021/10/22 01:47:14;;;;;;;12.47;2.90;;;8.40;99.90;;;;;;4153901;28;20136;-69
2021/10/22 01:49:14;;;;;;;10.25;2.67;;;8.40;99.90;;;;;;4147947;28;20352;-69
2021/10/22 01:51:15;;;;;;;5.60;1.90;;;8.40;99.90;;;;;;4150049;28;21201;-69
2021/10/22 01:53:18;;;;;;;12.85;3.05;;;8.40;99.90;;;;;;4147176;28;20049;-69
2021/10/22 01:55:19;;;;;;;11.38;3.03;;;8.40;99.90;;;;;;4177607;28;25241;-69
2021/10/22 01:57:20;;;;;;;7.57;2.05;;;8.30;99.90;;;;;;4150537;28;20053;-69
2021/10/22 01:59:20;;;;;;;8.07;2.13;;;8.30;99.90;;;;;;4148289;28;20060;-69
2021/10/22 02:01:21;;;;;;;10.32;2.55;;;8.30;99.90;;;;;;4148143;28;20030;-69
2021/10/22 02:03:21;;;;;;;8.20;2.47;;;8.40;99.90;;;;;;4148617;28;20138;-69
2021/10/22 02:05:22;;;;;;;14.00;3.25;;;8.30;99.90;;;;;;4154002;28;20580;-69
2021/10/22 02:07:22;;;;;;;14.60;3.00;;;8.30;99.90;;;;;;4154319;28;20045;-69
2021/10/22 02:09:23;;;;;;;14.13;2.97;;;8.30;99.90;;;;;;4159324;28;20057;-69
2021/10/22 02:11:24;;;;;;;11.65;3.05;;;8.30;99.90;;;;;;4148586;28;20596;-69
2021/10/22 02:13:25;;;;;;;11.05;2.90;;;8.30;99.90;;;;;;4150534;28;20044;-69
2021/10/22 02:15:25;;;;;;;18.90;3.45;;;8.30;99.90;;;;;;4152846;28;20042;-69
2021/10/22 02:17:26;;;;;;;8.48;2.55;;;8.40;99.90;;;;;;4156408;28;20044;-69
2021/10/22 02:19:26;;;;;;;14.48;3.38;;;8.40;99.90;;;;;;4147630;28;20083;-69
2021/10/22 02:21:27;;;;;;;10.57;2.80;;;8.30;99.90;;;;;;4150732;28;20092;-69
2021/10/22 02:23:28;;;;;;;12.73;2.90;;;8.30;99.90;;;;;;4152300;28;20044;-69
2021/10/22 02:25:28;;;;;;;8.80;3.03;;;8.30;99.90;;;;;;4149239;28;20037;-70
2021/10/22 02:27:29;;;;;;;13.45;3.13;;;8.30;99.90;;;;;;4150001;28;20417;-69
2021/10/22 02:29:30;;;;;;;8.95;3.15;;;8.30;99.90;;;;;;4152679;28;20545;-69
2021/10/22 02:31:30;;;;;;;9.70;2.80;;;8.30;99.90;;;;;;4151565;28;20083;-69
2021/10/22 02:33:31;;;;;;;12.57;2.72;;;8.20;99.90;;;;;;4156059;28;20556;-69
2021/10/22 02:35:32;;;;;;;10.77;2.67;;;8.30;99.90;;;;;;4151748;28;20052;-69
2021/10/22 02:37:32;;;;;;;10.68;3.10;;;8.30;99.90;;;;;;4150051;28;20532;-69
2021/10/22 02:39:35;;;;;;;13.75;3.55;;;8.20;99.90;;;;;;4152854;28;20420;-69
2021/10/22 02:41:35;;;;;;;14.80;3.30;;;8.20;99.90;;;;;;4148316;28;20684;-70
2021/10/22 02:43:36;;;;;;;8.38;2.65;;;8.10;99.90;;;;;;4151192;28;20048;-70
2021/10/22 02:45:37;;;;;;;8.57;2.90;;;8.10;99.90;;;;;;4149531;28;20056;-69
2021/10/22 02:47:38;;;;;;;10.25;3.20;;;8.20;99.90;;;;;;4151132;28;20048;-69
2021/10/22 02:49:38;;;;;;;15.35;3.72;;;8.10;99.90;;;;;;4153602;28;20554;-69
2021/10/22 02:51:39;;;;;;;12.80;3.20;;;8.10;99.90;;;;;;4153486;28;20129;-69
2021/10/22 02:53:39;;;;;;;13.30;3.45;;;8.10;99.90;;;;;;4147320;28;20038;-69
2021/10/22 02:55:40;;;;;;;11.63;2.70;;;8.10;99.90;;;;;;4150120;28;20045;-69
2021/10/22 02:57:41;;;;;;;12.10;3.33;;;8.10;99.90;;;;;;4174090;28;20052;-69
2021/10/22 02:59:42;;;;;;;13.98;3.10;;;8.10;99.90;;;;;;4149872;28;20041;-69
2021/10/22 03:01:42;;;;;;;16.80;3.78;;;8.10;99.90;;;;;;4152199;28;20512;-69
2021/10/22 03:03:43;;;;;;;12.07;2.83;;;8.10;99.90;;;;;;4149904;28;20493;-69
2021/10/22 03:05:44;;;;;;;11.70;3.28;;;8.10;99.90;;;;;;4151249;28;20068;-69
2021/10/22 03:07:44;;;;;;;14.05;3.10;;;8.10;99.90;;;;;;4152467;28;20384;-69
2021/10/22 03:09:45;;;;;;;10.88;3.03;;;8.10;99.90;;;;;;4150701;28;20516;-69
2021/10/22 03:11:45;;;;;;;13.48;3.22;;;8.10;99.90;;;;;;4152164;28;20048;-69
2021/10/22 03:13:46;;;;;;;11.50;2.90;;;8.00;99.90;;;;;;4155325;28;20529;-69
2021/10/22 03:15:47;;;;;;;9.60;2.78;;;8.10;99.90;;;;;;4157642;28;20065;-69
2021/10/22 03:17:47;;;;;;;11.55;3.45;;;8.10;99.90;;;;;;4156366;28;20037;-69
2021/10/22 03:19:48;;;;;;;10.52;3.45;;;8.00;99.90;;;;;;4155504;28;20042;-69
2021/10/22 03:21:48;;;;;;;8.60;2.97;;;8.00;99.90;;;;;;4154731;28;20033;-69
2021/10/22 03:23:54;;;;;;;9.48;2.70;;;8.00;99.90;;;;;;4155039;28;20485;-69
2021/10/22 03:25:55;;;;;;;10.27;2.92;;;8.00;99.90;;;;;;4152561;28;20592;-69
2021/10/22 03:28:02;;;;;;;11.30;2.58;;;8.00;99.90;;;;;;4149683;28;20311;-69
2021/10/22 03:30:04;;;;;;;12.52;2.95;;;8.00;99.90;;;;;;4155374;28;20041;-69
2021/10/22 03:32:05;;;;;;;12.93;3.20;;;8.10;99.90;;;;;;4153924;28;20029;-69
2021/10/22 03:34:05;;;;;;;13.27;3.47;;;8.00;99.90;;;;;;4155046;28;20441;-69
2021/10/22 03:36:06;;;;;;;12.48;3.60;;;8.00;99.90;;;;;;4155984;28;20621;-69
2021/10/22 03:38:06;;;;;;;12.07;2.80;;;8.00;99.90;;;;;;4153544;28;20033;-69
2021/10/22 03:40:07;;;;;;;17.02;3.13;;;7.90;99.90;;;;;;4155203;28;20460;-69
2021/10/22 03:42:08;;;;;;;11.85;2.78;;;7.90;99.90;;;;;;4154804;28;20342;-69
2021/10/22 03:44:09;;;;;;;15.07;3.15;;;7.90;99.90;;;;;;4159111;28;20480;-69
2021/10/22 03:46:10;;;;;;;19.17;3.08;;;7.90;99.90;;;;;;4151605;28;20055;-69
2021/10/22 03:48:11;;;;;;;12.20;3.22;;;7.90;99.90;;;;;;4150136;28;20057;-69
2021/10/22 03:50:13;;;;;;;11.20;3.05;;;7.80;99.90;;;;;;4152751;28;20045;-69
2021/10/22 03:52:14;;;;;;;10.73;3.40;;;7.80;99.90;;;;;;4151735;28;20033;-69
2021/10/22 03:54:14;;;;;;;10.52;2.42;;;7.80;99.90;;;;;;4153382;28;20064;-69
2021/10/22 03:56:15;;;;;;;14.13;3.38;;;7.70;99.90;;;;;;4153568;28;20060;-69
2021/10/22 03:58:18;;;;;;;11.38;2.88;;;7.80;99.90;;;;;;4152971;28;20037;-69
2021/10/22 04:00:18;;;;;;;7.88;2.38;;;7.70;99.90;;;;;;4153872;28;20053;-69
2021/10/22 04:02:19;;;;;;;13.80;2.90;;;7.80;99.90;;;;;;4152102;28;20057;-69
2021/10/22 04:04:27;;;;;;;11.32;3.42;;;7.80;99.90;;;;;;4151930;28;20057;-69
2021/10/22 04:06:28;;;;;;;11.70;3.40;;;7.70;99.90;;;;;;4154886;28;20112;-69
2021/10/22 04:08:29;;;;;;;12.40;3.17;;;7.70;99.90;;;;;;4153971;28;20502;-69
2021/10/22 04:10:29;;;;;;;9.65;2.83;;;7.70;99.90;;;;;;4155007;28;20044;-69
2021/10/22 04:12:30;;;;;;;9.23;2.83;;;7.70;99.90;;;;;;4153754;28;20057;-69
2021/10/22 04:14:30;;;;;;;8.63;2.80;;;7.70;99.90;;;;;;4151602;28;20144;-69
2021/10/22 04:16:31;;;;;;;17.17;3.88;;;7.70;99.90;;;;;;4154074;28;20132;-69
2021/10/22 04:18:32;;;;;;;13.85;3.25;;;7.60;99.90;;;;;;4133800;28;20686;-69
2021/10/22 04:20:33;;;;;;;14.27;3.63;;;7.60;99.90;;;;;;4177434;28;20029;-69
2021/10/22 04:22:34;;;;;;;11.77;2.85;;;7.60;99.90;;;;;;4152509;28;20057;-69
2021/10/22 04:24:35;;;;;;;11.25;3.15;;;7.60;99.90;;;;;;4154309;28;20120;-69
2021/10/22 04:26:35;;;;;;;12.10;3.50;;;7.50;99.90;;;;;;4154830;28;20504;-69
2021/10/22 04:28:36;;;;;;;10.07;2.47;;;7.50;99.90;;;;;;4153508;28;20645;-69
2021/10/22 04:30:37;;;;;;;8.02;2.70;;;7.50;99.90;;;;;;4153172;28;20573;-69
2021/10/22 04:32:38;;;;;;;11.32;3.00;;;7.60;99.90;;;;;;4154350;28;20598;-69
2021/10/22 04:34:38;;;;;;;16.15;3.25;;;7.60;99.90;;;;;;4148380;28;20072;-69
2021/10/22 04:36:40;;;;;;;9.85;2.90;;;7.60;99.90;;;;;;4154321;28;20114;-69
2021/10/22 04:41:03;;;;;;;12.35;3.35;;;7.50;99.90;;;;;;4175621;28;20926;-69
2021/10/22 04:43:10;;;;;;;11.45;3.60;;;7.50;99.90;;;;;;4153383;28;20497;-69
2021/10/22 04:45:11;;;;;;;11.00;3.15;;;7.50;99.90;;;;;;4154916;28;20566;-69
2021/10/22 04:47:12;;;;;;;10.75;2.90;;;7.50;99.90;;;;;;4156046;28;20026;-69
2021/10/22 04:49:13;;;;;;;17.63;3.42;;;7.50;99.90;;;;;;4146031;28;20037;-69
2021/10/22 04:51:14;;;;;;;13.88;2.97;;;7.50;99.90;;;;;;4150097;28;20080;-69
2021/10/22 04:53:15;;;;;;;13.57;3.22;;;7.50;99.90;;;;;;4152764;28;20029;-69
2021/10/22 04:55:16;;;;;;;14.20;2.85;;;7.50;99.90;;;;;;4150241;28;20128;-69
2021/10/22 04:57:16;;;;;;;16.98;3.47;;;7.50;99.90;;;;;;4152956;28;20124;-69
2021/10/22 04:59:17;;;;;;;13.75;2.92;;;7.50;99.90;;;;;;4151401;28;20030;-69
2021/10/22 05:01:17;;;;;;;14.50;2.92;;;7.50;99.90;;;;;;4154907;28;20038;-69
2021/10/22 05:03:19;;;;;;;11.98;2.80;;;7.50;99.90;;;;;;4153697;28;20073;-69
2021/10/22 05:05:19;;;;;;;13.52;2.92;;;7.60;99.90;;;;;;4153637;28;20571;-69
2021/10/22 05:07:20;;;;;;;13.23;3.35;;;7.60;99.90;;;;;;4154430;28;20033;-69
2021/10/22 05:09:20;;;;;;;10.23;3.00;;;7.50;99.90;;;;;;4154618;28;20109;-69
2021/10/22 05:11:21;;;;;;;11.27;2.95;;;7.60;99.90;;;;;;4153110;28;20393;-69
2021/10/22 05:13:22;;;;;;;11.93;2.90;;;7.50;99.90;;;;;;4154905;28;20037;-69
2021/10/22 05:15:24;;;;;;;9.55;2.53;;;7.60;99.90;;;;;;4152495;28;20069;-69
2021/10/22 05:17:25;;;;;;;11.77;2.78;;;7.60;99.90;;;;;;4150027;28;20049;-69
2021/10/22 05:19:27;;;;;;;8.95;2.45;;;7.60;99.90;;;;;;4154904;28;20591;-69
2021/10/22 05:21:27;;;;;;;8.20;2.60;;;7.70;99.90;;;;;;4153054;28;20087;-69
2021/10/22 05:23:28;;;;;;;11.32;2.55;;;7.70;99.90;;;;;;4142332;28;20049;-70
2021/10/22 05:25:29;;;;;;;11.75;2.50;;;7.70;99.90;;;;;;4153059;28;20125;-69
2021/10/22 05:27:29;;;;;;;17.90;3.45;;;7.70;99.90;;;;;;4152657;28;20033;-69
2021/10/22 05:29:30;;;;;;;7.80;2.63;;;7.70;99.90;;;;;;4149063;28;20083;-69
2021/10/22 05:31:30;;;;;;;11.57;3.17;;;7.70;99.90;;;;;;4147690;28;20037;-69
2021/10/22 05:33:31;;;;;;;13.02;3.17;;;7.70;99.90;;;;;;4152777;28;20041;-72
2021/10/22 05:35:31;;;;;;;14.20;2.85;;;7.70;99.90;;;;;;4152849;28;20034;-69
2021/10/22 05:37:32;;;;;;;11.25;2.80;;;7.60;99.90;;;;;;4150860;28;20096;-69
2021/10/22 05:39:33;;;;;;;15.77;3.17;;;7.70;99.90;;;;;;4150958;28;20057;-69
2021/10/22 05:41:34;;;;;;;12.45;3.10;;;7.60;99.90;;;;;;4153451;28;20508;-69
2021/10/22 05:43:34;;;;;;;12.55;3.20;;;7.60;99.90;;;;;;4153829;28;20152;-69
2021/10/22 05:45:35;;;;;;;10.38;3.00;;;7.60;99.90;;;;;;4153151;28;20188;-69
2021/10/22 05:47:36;;;;;;;12.90;2.80;;;7.60;99.90;;;;;;4153971;28;20045;-69
2021/10/22 05:49:36;;;;;;;8.88;2.60;;;7.60;99.90;;;;;;4152998;28;20048;-69
2021/10/22 05:51:37;;;;;;;11.68;3.17;;;7.60;99.90;;;;;;4149100;28;20037;-69
2021/10/22 05:53:38;;;;;;;11.48;3.17;;;7.60;99.90;;;;;;4153874;28;20060;-69
2021/10/22 05:55:38;;;;;;;10.57;2.60;;;7.50;99.90;;;;;;4149064;28;20492;-69
2021/10/22 05:57:39;;;;;;;12.82;3.08;;;7.50;99.90;;;;;;4151978;28;20567;-69
2021/10/22 05:59:40;;;;;;;14.93;3.10;;;7.50;99.90;;;;;;4154139;28;20037;-70
2021/10/22 06:01:40;;;;;;;13.52;2.72;;;7.50;99.90;;;;;;4149488;28;20114;-69
2021/10/22 06:03:41;;;;;;;12.68;2.92;;;7.50;99.90;;;;;;4154431;28;20076;-69
2021/10/22 06:05:41;;;;;;;16.48;3.40;;;7.50;99.90;;;;;;4151906;28;20034;-69
2021/10/22 06:07:42;;;;;;;8.70;2.42;;;7.50;99.90;;;;;;4150803;28;20037;-69
2021/10/22 06:09:42;;;;;;;10.18;2.95;;;7.50;99.90;;;;;;4152036;28;20061;-69
2021/10/22 06:11:43;;;;;;;7.85;2.65;;;7.50;99.90;;;;;;4151229;28;20064;-69
2021/10/22 06:13:44;;;;;;;13.63;2.97;;;7.50;99.90;;;;;;4153157;28;20125;-70
2021/10/22 06:15:45;;;;;;;17.35;3.85;;;7.50;99.90;;;;;;4152279;28;20046;-70
2021/10/22 06:17:45;;;;;;;12.75;2.70;;;7.60;99.90;;;;;;4153031;28;20155;-70
2021/10/22 06:19:47;;;;;;;18.33;3.50;;;7.60;99.90;;;;;;4152046;28;20041;-70
2021/10/22 06:23:55;;;;;;;12.98;3.15;;;7.50;99.90;;;;;;4152804;28;20037;-70
2021/10/22 06:25:56;;;;;;;10.23;3.03;;;7.50;99.90;;;;;;4153194;28;20606;-70
2021/10/22 06:27:56;;;;;;;15.38;3.55;;;7.60;99.90;;;;;;4152221;28;20037;-69
2021/10/22 06:29:57;;;;;;;12.65;2.72;;;7.50;99.90;;;;;;4152304;28;20045;-70
2021/10/22 06:31:58;;;;;;;8.68;2.80;;;7.60;99.90;;;;;;4152554;28;20117;-70
2021/10/22 06:34:00;;;;;;;11.57;2.72;;;7.60;99.90;;;;;;4150579;28;20087;-70
2021/10/22 06:36:00;;;;;;;10.02;2.95;;;7.70;99.90;;;;;;4153468;28;20448;-69
2021/10/22 06:38:01;;;;;;;15.82;3.00;;;7.70;99.90;;;;;;4151652;28;20042;-69
2021/10/22 06:40:02;;;;;;;12.10;3.50;;;7.70;99.90;;;;;;4149771;28;20037;-69
2021/10/22 06:42:03;;;;;;;9.95;2.78;;;7.70;99.90;;;;;;4147810;28;20042;-69
2021/10/22 06:44:04;;;;;;;10.68;3.03;;;7.80;99.90;;;;;;4150837;28;20504;-69
2021/10/22 06:46:07;;;;;;;9.05;2.60;;;7.80;99.90;;;;;;4151056;28;20489;-70
2021/10/22 06:48:08;;;;;;;;;;;7.80;99.90;;;;;;4149955;28;20038;-69
2021/10/22 06:50:09;;;;;;;8.45;2.80;;;7.80;99.90;;;;;;4151312;28;20383;-69
2021/10/22 06:52:09;;;;;;;10.25;3.55;;;7.90;99.90;;;;;;4147504;28;20038;-70
2021/10/22 06:54:10;;;;;;;9.32;2.67;;;7.90;99.90;;;;;;4148715;28;20038;-69
2021/10/22 06:56:11;;;;;;;12.07;2.92;;;7.90;99.90;;;;;;4147664;28;20041;-69
2021/10/22 06:58:13;;;;;;;15.57;2.75;;;7.90;99.90;;;;;;4152440;28;20432;-69
2021/10/22 07:00:14;;;;;;;14.10;3.05;;;7.90;99.90;;;;;;4150404;28;20029;-69
2021/10/22 07:02:15;;;;;;;8.57;2.67;;;7.90;99.90;;;;;;4153003;28;20409;-69
2021/10/22 07:04:16;;;;;;;12.32;3.30;;;8.00;99.90;;;;;;4156537;28;20075;-69
2021/10/22 07:08:36;;;;;;;25.42;3.45;;;7.90;99.90;;;;;;4148638;28;20041;-70
2021/10/22 07:10:36;;;;;;;12.32;3.63;;;8.00;99.90;;;;;;4154260;28;20493;-70
2021/10/22 07:12:37;;;;;;;11.10;3.67;;;8.00;99.90;;;;;;4154887;28;20056;-70
2021/10/22 07:14:47;;;;;;;10.02;3.13;;;7.90;99.90;;;;;;4150560;28;20052;-70
2021/10/22 07:16:48;;;;;;;12.30;3.03;;;8.00;99.90;;;;;;4150584;28;20045;-70
2021/10/22 07:18:50;;;;;;;13.70;2.80;;;8.10;99.90;;;;;;4153436;28;20058;-70
2021/10/22 07:20:50;;;;;;;12.57;2.45;;;8.10;99.90;;;;;;4150443;28;20057;-70
2021/10/22 07:22:52;;;;;;;10.27;2.50;;;8.20;99.90;;;;;;4155192;28;20033;-70
2021/10/22 07:24:52;;;;;;;6.65;3.25;;;8.30;99.90;;;;;;4148554;28;20552;-70
2021/10/22 07:26:53;;;;;;;8.98;2.75;;;8.30;99.90;;;;;;4152971;28;20037;-70
2021/10/22 07:28:54;;;;;;;10.32;2.10;;;8.40;99.90;;;;;;4154160;28;20038;-70
2021/10/22 07:30:54;;;;;;;8.30;2.22;;;8.50;99.90;;;;;;4150260;28;20030;-70
2021/10/22 07:32:55;;;;;;;11.80;2.65;;;8.50;99.90;;;;;;4148983;28;20022;-71
2021/10/22 07:34:55;;;;;;;7.30;2.67;;;8.60;99.90;;;;;;4152802;28;20118;-69
2021/10/22 07:36:56;;;;;;;10.18;2.40;;;8.60;99.90;;;;;;4152610;28;20049;-70
2021/10/22 07:38:57;;;;;;;11.00;2.30;;;8.60;99.90;;;;;;4151173;28;20045;-70
2021/10/22 07:40:57;;;;;;;12.98;2.65;;;8.70;99.90;;;;;;4148832;28;20134;-69
2021/10/22 07:42:58;;;;;;;10.35;2.30;;;8.70;99.90;;;;;;4154924;28;20029;-70
2021/10/22 07:45:00;;;;;;;11.93;2.45;;;8.70;99.90;;;;;;4152958;28;20041;-70
2021/10/22 07:47:00;;;;;;;15.13;3.28;;;8.80;99.90;;;;;;4149665;28;20070;-70
2021/10/22 07:49:01;;;;;;;9.57;2.17;;;9.00;99.90;;;;;;4151745;28;20038;-70
2021/10/22 07:51:02;;;;;;;8.70;2.47;;;9.20;99.90;;;;;;4147138;28;20072;-70
2021/10/22 07:53:03;;;;;;;6.25;1.83;;;9.50;99.90;;;;;;4149659;28;20033;-70
2021/10/22 07:55:04;;;;;;;11.95;3.13;;;9.80;99.90;;;;;;4152083;28;20041;-69
2021/10/22 07:57:05;;;;;;;10.57;2.28;;;10.10;99.90;;;;;;4150350;28;20464;-70
2021/10/22 07:59:06;;;;;;;6.47;2.33;;;10.20;99.90;;;;;;4147283;28;20037;-70
2021/10/22 08:01:06;;;;;;;10.13;2.13;;;10.20;99.90;;;;;;4156864;28;20037;-70
2021/10/22 08:03:07;;;;;;;12.25;2.65;;;10.10;99.90;;;;;;4154810;28;20029;-70
2021/10/22 08:05:08;;;;;;;10.65;2.60;;;10.10;99.90;;;;;;4155156;28;20040;-69
2021/10/22 08:07:09;;;;;;;7.72;2.42;;;9.90;99.90;;;;;;4150430;28;20060;-70
2021/10/22 08:09:09;;;;;;;10.48;3.00;;;9.90;99.90;;;;;;4152981;28;20041;-69
2021/10/22 08:11:12;;;;;;;13.70;2.83;;;9.90;99.90;;;;;;4155725;28;20037;-69
2021/10/22 08:13:12;;;;;;;8.80;2.70;;;9.90;99.90;;;;;;4176788;28;20037;-69
2021/10/22 08:15:13;;;;;;;8.75;1.98;;;9.80;99.90;;;;;;4150733;28;20504;-69
2021/10/22 08:17:18;;;;;;;8.32;2.50;;;9.80;99.90;;;;;;4154246;28;20045;-70
2021/10/22 08:19:19;;;;;;;13.63;2.97;;;9.80;99.90;;;;;;4156708;28;20047;-70
2021/10/22 08:23:38;;;;;;;9.13;2.90;;;9.70;99.90;;;;;;4153979;28;20128;-70
2021/10/22 08:25:38;;;;;;;15.40;2.88;;;9.80;99.90;;;;;;4154519;28;20727;-70
2021/10/22 08:27:42;;;;;;;9.68;2.28;;;9.90;99.90;;;;;;4155773;28;20037;-70
2021/10/22 08:29:43;;;;;;;13.52;2.65;;;10.00;99.90;;;;;;4149162;28;20033;-70
2021/10/22 08:31:43;;;;;;;11.05;2.80;;;10.10;99.90;;;;;;4155124;28;20087;-69
2021/10/22 08:33:44;;;;;;;8.70;2.50;;;10.10;99.90;;;;;;4154329;28;20030;-70
2021/10/22 08:35:44;;;;;;;10.63;2.75;;;10.00;99.90;;;;;;4159974;28;20049;-70
2021/10/22 08:37:46;;;;;;;10.90;2.53;;;10.00;99.90;;;;;;4149778;28;20258;-69
2021/10/22 08:39:47;;;;;;;11.32;2.70;;;10.00;99.90;;;;;;4155560;28;20497;-70
2021/10/22 08:41:51;;;;;;;7.95;2.25;;;10.00;99.90;;;;;;4151736;28;20049;-70
2021/10/22 08:43:52;;;;;;;9.18;2.67;;;10.00;99.90;;;;;;4153208;28;20033;-70
2021/10/22 08:45:56;;;;;;;7.47;2.40;;;9.90;99.90;;;;;;4150911;28;20223;-69
2021/10/22 08:47:56;;;;;;;9.13;2.15;;;10.00;99.90;;;;;;4177192;28;20048;-70
2021/10/22 08:49:58;;;;;;;9.77;2.28;;;10.00;99.90;;;;;;4153315;28;20052;-70
2021/10/22 08:52:02;;;;;;;16.00;2.88;;;10.10;99.90;;;;;;4156810;28;20123;-70
2021/10/22 08:54:03;;;;;;;10.85;2.65;;;10.20;99.90;;;;;;4154354;28;20489;-70
2021/10/22 08:56:05;;;;;;;11.57;3.15;;;10.30;99.90;;;;;;4148682;28;20052;-70
2021/10/22 08:58:06;;;;;;;11.73;2.08;;;10.40;99.90;;;;;;4154238;28;20116;-70
2021/10/22 09:00:07;;;;;;;6.25;2.25;;;10.50;99.90;;;;;;4137619;28;20190;-70
2021/10/22 09:02:17;;;;;;;11.77;2.80;;;10.70;99.90;;;;;;4154938;28;20064;-70
2021/10/22 09:04:32;;;;;;;10.57;2.55;;;10.80;99.90;;;;;;4155486;28;20181;-70
2021/10/22 09:06:49;;;;;;;10.80;2.50;;;10.90;99.90;;;;;;4156990;28;20045;-70
2021/10/22 09:08:57;;;;;;;9.90;2.70;;;11.10;99.90;;;;;;4139305;28;20488;-70
2021/10/22 09:10:58;;;;;;;9.82;2.85;;;11.00;99.90;;;;;;4153745;28;20502;-70
2021/10/22 09:13:06;;;;;;;12.13;2.97;;;11.10;99.90;;;;;;4155651;28;20132;-70
2021/10/22 09:15:08;;;;;;;12.30;2.78;;;11.10;99.90;;;;;;4148729;28;20022;-70
2021/10/22 09:17:13;;;;;;;11.27;2.73;;;11.20;99.90;;;;;;4151676;28;20437;-70
2021/10/22 09:19:36;;;;;;;8.05;2.38;;;11.30;99.90;;;;;;4153593;28;20038;-70
2021/10/22 09:21:37;;;;;;;10.35;2.40;;;11.40;99.90;;;;;;4153778;28;20069;-70
2021/10/22 09:23:40;;;;;;;6.60;2.28;;;11.50;99.90;;;;;;4154395;28;20049;-70
2021/10/22 09:25:41;;;;;;;11.82;3.08;;;11.50;99.90;;;;;;4151090;28;20481;-70
2021/10/22 09:27:48;;;;;;;11.50;3.03;;;11.50;99.90;;;;;;4153247;28;20038;-70
2021/10/22 09:29:48;;;;;;;7.95;2.45;;;11.30;99.90;;;;;;4153923;28;20033;-70
2021/10/22 09:31:50;;;;;;;8.85;2.30;;;11.40;99.90;;;;;;4154475;28;20163;-70
2021/10/22 09:34:00;;;;;;;10.63;2.13;;;11.50;99.90;;;;;;4157505;28;20040;-71
2021/10/22 09:36:00;;;;;;;8.45;2.55;;;11.50;99.90;;;;;;4155975;28;20092;-70
2021/10/22 09:38:09;;;;;;;9.05;2.33;;;11.70;99.90;;;;;;4154297;28;20030;-70
2021/10/22 09:40:10;;;;;;;8.43;2.35;;;11.80;99.90;;;;;;4154100;28;20461;-70
2021/10/22 09:42:13;;;;;;;8.00;2.47;;;11.80;99.90;;;;;;4152898;28;20030;-70
2021/10/22 09:44:24;;;;;;;9.35;2.35;;;11.90;99.90;;;;;;4154617;28;20037;-70
2021/10/22 09:46:24;;;;;;;6.72;1.73;;;11.90;99.90;;;;;;4153207;28;20393;-70
2021/10/22 09:48:28;;;;;;;8.00;1.90;;;11.90;99.90;;;;;;4151670;28;20033;-70
2021/10/22 09:50:28;;;;;;;10.05;2.10;;;12.00;99.90;;;;;;4155363;28;20048;-70
2021/10/22 09:52:29;;;;;;;8.20;2.45;;;12.00;99.90;;;;;;4151286;28;20113;-70
2021/10/22 09:54:32;;;;;;;10.05;2.35;;;12.10;99.90;;;;;;4151860;28;20033;-70
2021/10/22 09:56:33;;;;;;;10.20;2.30;;;12.10;99.90;;;;;;4154396;28;20064;-69
2021/10/22 09:58:35;;;;;;;4.88;2.15;;;12.10;99.90;;;;;;4152072;28;20037;-69
2021/10/22 10:00:36;;;;;;;8.65;2.30;;;12.20;99.90;;;;;;4152949;28;20092;-69
2021/10/22 10:02:38;;;;;;;11.15;2.50;;;12.30;99.90;;;;;;4152082;28;20040;-69
2021/10/22 10:04:39;;;;;;;6.30;2.25;;;12.40;99.90;;;;;;4156881;28;20250;-69
2021/10/22 10:06:44;;;;;;;7.22;2.35;;;12.40;99.90;;;;;;4153260;28;20056;-69
2021/10/22 10:08:44;;;;;;;9.40;2.45;;;12.40;99.90;;;;;;4153446;28;20033;-69
2021/10/22 10:10:45;;;;;;;8.25;2.13;;;12.50;99.90;;;;;;4151711;28;20052;-69
2021/10/22 10:12:46;;;;;;;6.47;1.88;;;12.40;99.90;;;;;;4152438;28;20542;-69
2021/10/22 10:14:47;;;;;;;10.73;2.33;;;12.40;99.90;;;;;;4150466;28;20309;-69
2021/10/22 10:16:49;;;;;;;7.80;2.15;;;12.30;99.90;;;;;;4152157;28;20038;-69
2021/10/22 10:19:12;;;;;;;7.45;2.05;;;12.20;99.90;;;;;;4150948;28;20087;-69
2021/10/22 10:21:15;;;;;;;9.02;2.42;;;12.20;99.90;;;;;;4152130;28;20575;-69
2021/10/22 10:23:16;;;;;;;;;;;12.20;99.90;;;;;;4152685;28;20053;-69
2021/10/22 10:25:22;;;;;;;6.38;1.83;;;12.20;99.90;;;;;;4152966;28;20410;-69
2021/10/22 10:27:25;;;;;;;10.15;2.55;;;12.30;99.90;;;;;;4150380;28;20334;-69
2021/10/22 10:29:32;;;;;;;9.27;2.75;;;12.20;99.90;;;;;;4151333;28;20449;-69
2021/10/22 10:31:42;;;;;;;5.85;1.65;;;12.10;99.90;;;;;;4150722;28;20037;-69
2021/10/22 10:33:42;;;;;;;7.75;1.90;;;12.10;99.90;;;;;;4149569;28;20473;-69
2021/10/22 10:35:43;;;;;;;8.05;2.10;;;12.10;99.90;;;;;;4152514;28;20026;-69
2021/10/22 10:37:52;;;;;;;8.43;2.00;;;12.10;99.90;;;;;;4151354;28;20041;-69
2021/10/22 10:39:59;;;;;;;8.82;1.92;;;12.20;99.90;;;;;;4153114;28;20045;-69
2021/10/22 10:42:29;;;;;;;8.77;2.13;;;12.30;99.90;;;;;;4150676;28;20091;-69
2021/10/22 10:44:31;;;;;;;11.70;2.47;;;12.40;99.90;;;;;;4148210;28;20048;-69